Converse County Information

FAA: DGW - ICAO: KDGW

Converse County (Airport) Location

State Wyoming
County Converse
City Douglas
Converse County (Airport) is 3 miles north of Douglas, WY.
Latitude 42-47-49.9000N
Longitude 105-23-09.0000W
Elevation 4,932ft

Converse County METARs

METAR KDGW 242353Z AUTO 04003KT 10SM CLR 11/M02 A2988 RMK AO2 SLP105 T01111022 10144 20111 50000 $
Altimeter 29.88"
Temperature 11.1°C (52.0°F)
Wind 40° at 3KT
Clouds Skies are clear.
Visibility 10.0mi
Time observed: 2021-10-24T23:53:00Z

Converse County (Airport) Details

Status Operational
Activation September 1984
Ownership Public
Usage Public
Chart CHEYENNE
ATC on-site No
Beacon schedule sunset-sunrise
Beacon color clear green

Converse County (Airport) Contacts

Owner CONVERSE COUNTY
Owner address PO BOX 774, DOUGLAS, WY 82633
Owner phone 307-358-4924
Manager DON MCNIVEN
Manager address P.O. BOX 64, BURLINGTON, WY 82411
Manager phone (307) 899-0385

Converse County Radio Frequencies

Converse County (Airport) Radio Frequencies

UNICOM 122.8
Common traffic advisory frequency (CTAF) 122.8